sensor_id;sensor_type;location;lat;lon;timestamp;pressure;altitude;pressure_sealevel;temperature;humidity
21300;BME280;10809;49.476;11.016;2023-04-04T00:02:09;99262.13;;;2.06;47.00
21300;BME280;10809;49.476;11.016;2023-04-04T00:04:40;99262.09;;;2.10;47.09
21300;BME280;10809;49.476;11.016;2023-04-04T00:07:10;99258.59;;;2.14;46.93
21300;BME280;10809;49.476;11.016;2023-04-04T00:09:47;99260.31;;;2.17;46.96
21300;BME280;10809;49.476;11.016;2023-04-04T00:12:17;99257.66;;;2.21;47.22
21300;BME280;10809;49.476;11.016;2023-04-04T00:14:48;99262.88;;;2.24;47.21
21300;BME280;10809;49.476;11.016;2023-04-04T00:17:18;99257.63;;;2.27;46.82
21300;BME280;10809;49.476;11.016;2023-04-04T00:19:52;99259.38;;;2.30;46.90
21300;BME280;10809;49.476;11.016;2023-04-04T00:22:22;99248.00;;;2.32;47.15
21300;BME280;10809;49.476;11.016;2023-04-04T00:24:53;99248.88;;;2.36;47.04
21300;BME280;10809;49.476;11.016;2023-04-04T00:27:23;99251.47;;;2.37;46.84
21300;BME280;10809;49.476;11.016;2023-04-04T00:29:53;99246.22;;;2.39;47.04
21300;BME280;10809;49.476;11.016;2023-04-04T00:32:24;99246.22;;;2.42;46.97
21300;BME280;10809;49.476;11.016;2023-04-04T00:34:54;99238.34;;;2.43;46.80
21300;BME280;10809;49.476;11.016;2023-04-04T00:37:26;99241.81;;;2.45;47.06
21300;BME280;10809;49.476;11.016;2023-04-04T00:40:00;99239.16;;;2.47;46.84
21300;BME280;10809;49.476;11.016;2023-04-04T00:42:32;99243.53;;;2.49;46.71
21300;BME280;10809;49.476;11.016;2023-04-04T00:45:05;99238.28;;;2.51;46.60
21300;BME280;10809;49.476;11.016;2023-04-04T00:47:37;99228.66;;;2.53;47.04
21300;BME280;10809;49.476;11.016;2023-04-04T00:50:08;99231.25;;;2.54;47.20
21300;BME280;10809;49.476;11.016;2023-04-04T00:52:39;99232.13;;;2.55;46.43
21300;BME280;10809;49.476;11.016;2023-04-04T00:55:10;99228.63;;;2.56;46.90
21300;BME280;10809;49.476;11.016;2023-04-04T00:57:40;99234.72;;;2.58;46.60
21300;BME280;10809;49.476;11.016;2023-04-04T01:00:11;99228.59;;;2.59;46.82
21300;BME280;10809;49.476;11.016;2023-04-04T01:02:42;99232.09;;;2.60;46.73
21300;BME280;10809;49.476;11.016;2023-04-04T01:05:16;99225.13;;;2.60;46.95
21300;BME280;10809;49.476;11.016;2023-04-04T01:07:46;99227.75;;;2.60;46.53
21300;BME280;10809;49.476;11.016;2023-04-04T01:10:30;99226.88;;;2.60;46.72
21300;BME280;10809;49.476;11.016;2023-04-04T01:13:03;99222.53;;;2.60;46.79
21300;BME280;10809;49.476;11.016;2023-04-04T01:15:34;99233.84;;;2.59;46.79
21300;BME280;10809;49.476;11.016;2023-04-04T01:18:05;99220.78;;;2.57;46.65
21300;BME280;10809;49.476;11.016;2023-04-04T01:20:42;99227.78;;;2.57;46.73
21300;BME280;10809;49.476;11.016;2023-04-04T01:23:14;99216.44;;;2.58;46.24
21300;BME280;10809;49.476;11.016;2023-04-04T01:26:01;99225.19;;;2.56;46.36
21300;BME280;10809;49.476;11.016;2023-04-04T01:28:34;99222.56;;;2.54;46.50
21300;BME280;10809;49.476;11.016;2023-04-04T01:31:11;99223.44;;;2.53;46.24
21300;BME280;10809;49.476;11.016;2023-04-04T01:33:45;99224.31;;;2.52;45.98
21300;BME280;10809;49.476;11.016;2023-04-04T01:36:31;99225.22;;;2.49;46.16
21300;BME280;10809;49.476;11.016;2023-04-04T01:39:16;99217.41;;;2.46;46.61
21300;BME280;10809;49.476;11.016;2023-04-04T01:41:47;99221.78;;;2.44;46.22
21300;BME280;10809;49.476;11.016;2023-04-04T01:44:20;99218.31;;;2.42;45.97
21300;BME280;10809;49.476;11.016;2023-04-04T01:46:54;99219.22;;;2.38;45.48
21300;BME280;10809;49.476;11.016;2023-04-04T01:49:25;99213.16;;;2.33;46.32
21300;BME280;10809;49.476;11.016;2023-04-04T01:51:55;99215.81;;;2.29;45.04
21300;BME280;10809;49.476;11.016;2023-04-04T01:54:32;99221.06;;;2.24;45.63
21300;BME280;10809;49.476;11.016;2023-04-04T01:57:06;99217.66;;;2.21;45.57
21300;BME280;10809;49.476;11.016;2023-04-04T01:59:37;99214.19;;;2.16;45.28
21300;BME280;10809;49.476;11.016;2023-04-04T02:02:11;99216.81;;;2.13;45.43
21300;BME280;10809;49.476;11.016;2023-04-04T02:04:41;99212.47;;;2.09;45.92
21300;BME280;10809;49.476;11.016;2023-04-04T02:07:15;99208.16;;;2.05;45.69
21300;BME280;10809;49.476;11.016;2023-04-04T02:09:46;99203.84;;;2.01;45.42
21300;BME280;10809;49.476;11.016;2023-04-04T02:12:16;99209.97;;;1.97;45.77
21300;BME280;10809;49.476;11.016;2023-04-04T02:14:47;99211.75;;;1.93;45.37
21300;BME280;10809;49.476;11.016;2023-04-04T02:17:17;99207.41;;;1.89;45.81
21300;BME280;10809;49.476;11.016;2023-04-04T02:19:48;99204.81;;;1.85;45.55
21300;BME280;10809;49.476;11.016;2023-04-04T02:22:22;99199.63;;;1.80;46.02
21300;BME280;10809;49.476;11.016;2023-04-04T02:24:52;99197.91;;;1.78;45.91
21300;BME280;10809;49.476;11.016;2023-04-04T02:27:23;99208.38;;;1.75;46.19
21300;BME280;10809;49.476;11.016;2023-04-04T02:29:54;99207.53;;;1.71;45.80
21300;BME280;10809;49.476;11.016;2023-04-04T02:32:24;99204.09;;;1.68;45.77
21300;BME280;10809;49.476;11.016;2023-04-04T02:34:55;99204.09;;;1.65;46.28
21300;BME280;10809;49.476;11.016;2023-04-04T02:37:26;99195.41;;;1.61;46.13
21300;BME280;10809;49.476;11.016;2023-04-04T02:39:58;99190.22;;;1.58;45.92
21300;BME280;10809;49.476;11.016;2023-04-04T02:42:29;99198.06;;;1.54;45.87
21300;BME280;10809;49.476;11.016;2023-04-04T02:45:08;99201.56;;;1.50;45.93
21300;BME280;10809;49.476;11.016;2023-04-04T02:47:41;99199.84;;;1.46;46.42
21300;BME280;10809;49.476;11.016;2023-04-04T02:50:19;99204.19;;;1.42;46.23
21300;BME280;10809;49.476;11.016;2023-04-04T02:52:59;99201.59;;;1.39;46.22
21300;BME280;10809;49.476;11.016;2023-04-04T02:55:32;99196.41;;;1.35;45.85
21300;BME280;10809;49.476;11.016;2023-04-04T02:58:02;99188.59;;;1.32;46.10
21300;BME280;10809;49.476;11.016;2023-04-04T03:00:33;99194.72;;;1.29;46.55
21300;BME280;10809;49.476;11.016;2023-04-04T03:03:03;99194.72;;;1.26;46.64
21300;BME280;10809;49.476;11.016;2023-04-04T03:05:37;99195.63;;;1.24;46.44
21300;BME280;10809;49.476;11.016;2023-04-04T03:08:08;99197.38;;;1.20;46.59
21300;BME280;10809;49.476;11.016;2023-04-04T03:10:38;99198.25;;;1.18;46.88
21300;BME280;10809;49.476;11.016;2023-04-04T03:13:13;99193.06;;;1.15;46.94
21300;BME280;10809;49.476;11.016;2023-04-04T03:15:43;99191.28;;;1.14;46.94
21300;BME280;10809;49.476;11.016;2023-04-04T03:18:14;99190.44;;;1.10;46.55
21300;BME280;10809;49.476;11.016;2023-04-04T03:20:44;99191.34;;;1.05;46.67
21300;BME280;10809;49.476;11.016;2023-04-04T03:23:15;99190.47;;;1.01;46.39
21300;BME280;10809;49.476;11.016;2023-04-04T03:25:45;99190.50;;;0.95;46.43
21300;BME280;10809;49.476;11.016;2023-04-04T03:28:16;99186.19;;;0.90;46.73
21300;BME280;10809;49.476;11.016;2023-04-04T03:30:46;99187.91;;;0.86;46.51
21300;BME280;10809;49.476;11.016;2023-04-04T03:33:17;99186.22;;;0.81;46.48
21300;BME280;10809;49.476;11.016;2023-04-04T03:35:48;99191.44;;;0.76;46.87
21300;BME280;10809;49.476;11.016;2023-04-04T03:38:18;99180.16;;;0.68;46.62
21300;BME280;10809;49.476;11.016;2023-04-04T03:40:49;99184.53;;;0.61;46.37
21300;BME280;10809;49.476;11.016;2023-04-04T03:43:19;99189.72;;;0.57;46.93
21300;BME280;10809;49.476;11.016;2023-04-04T03:45:50;99185.41;;;0.51;47.11
21300;BME280;10809;49.476;11.016;2023-04-04T03:48:21;99188.00;;;0.48;47.52
21300;BME280;10809;49.476;11.016;2023-04-04T03:50:51;99190.63;;;0.47;47.14
21300;BME280;10809;49.476;11.016;2023-04-04T03:53:22;99181.09;;;0.43;47.10
21300;BME280;10809;49.476;11.016;2023-04-04T03:55:55;99183.69;;;0.40;47.32
21300;BME280;10809;49.476;11.016;2023-04-04T03:58:34;99188.03;;;0.36;47.17
21300;BME280;10809;49.476;11.016;2023-04-04T04:01:05;99190.63;;;0.35;47.14
21300;BME280;10809;49.476;11.016;2023-04-04T04:03:37;99184.56;;;0.33;47.35
21300;BME280;10809;49.476;11.016;2023-04-04T04:06:09;99189.75;;;0.31;47.15
21300;BME280;10809;49.476;11.016;2023-04-04T04:08:42;99186.31;;;0.29;47.57
21300;BME280;10809;49.476;11.016;2023-04-04T04:11:16;99182.84;;;0.27;47.28
21300;BME280;10809;49.476;11.016;2023-04-04T04:13:47;99181.97;;;0.25;47.47
21300;BME280;10809;49.476;11.016;2023-04-04T04:16:17;99191.53;;;0.26;47.59
21300;BME280;10809;49.476;11.016;2023-04-04T04:19:01;99184.56;;;0.22;47.43
21300;BME280;10809;49.476;11.016;2023-04-04T04:21:41;99179.34;;;0.19;47.36
21300;BME280;10809;49.476;11.016;2023-04-04T04:24:13;99183.72;;;0.17;47.56
21300;BME280;10809;49.476;11.016;2023-04-04T04:26:44;99174.16;;;0.13;47.40
21300;BME280;10809;49.476;11.016;2023-04-04T04:29:18;99177.63;;;0.12;47.81
21300;BME280;10809;49.476;11.016;2023-04-04T04:31:50;99178.53;;;0.11;47.47
21300;BME280;10809;49.476;11.016;2023-04-04T04:34:32;99181.97;;;0.10;47.77
21300;BME280;10809;49.476;11.016;2023-04-04T04:37:03;99183.72;;;0.10;47.92
21300;BME280;10809;49.476;11.016;2023-04-04T04:40:03;99179.34;;;0.10;47.88
21300;BME280;10809;49.476;11.016;2023-04-04T04:42:49;99189.78;;;0.10;47.79
21300;BME280;10809;49.476;11.016;2023-04-04T04:45:23;99184.56;;;0.09;47.81
21300;BME280;10809;49.476;11.016;2023-04-04T04:48:05;99182.84;;;0.06;47.60
21300;BME280;10809;49.476;11.016;2023-04-04T04:50:42;99186.28;;;0.05;48.16
21300;BME280;10809;49.476;11.016;2023-04-04T04:53:16;99188.91;;;0.02;47.61
21300;BME280;10809;49.476;11.016;2023-04-04T04:55:50;99191.50;;;0.02;48.28
21300;BME280;10809;49.476;11.016;2023-04-04T04:58:21;99190.66;;;0.02;48.07
21300;BME280;10809;49.476;11.016;2023-04-04T05:00:59;99190.66;;;0.00;47.94
21300;BME280;10809;49.476;11.016;2023-04-04T05:03:41;99185.44;;;-0.01;48.55
21300;BME280;10809;49.476;11.016;2023-04-04T05:06:25;99191.50;;;-0.02;48.36
21300;BME280;10809;49.476;11.016;2023-04-04T05:08:58;99194.09;;;-0.04;48.34
21300;BME280;10809;49.476;11.016;2023-04-04T05:11:40;99190.66;;;-0.04;48.16
21300;BME280;10809;49.476;11.016;2023-04-04T05:14:13;99184.56;;;-0.05;48.07
21300;BME280;10809;49.476;11.016;2023-04-04T05:16:53;99190.66;;;-0.06;47.79
21300;BME280;10809;49.476;11.016;2023-04-04T05:19:30;99187.16;;;-0.06;48.23
21300;BME280;10809;49.476;11.016;2023-04-04T05:22:05;99186.28;;;-0.07;48.13
21300;BME280;10809;49.476;11.016;2023-04-04T05:24:43;99190.66;;;-0.07;48.26
21300;BME280;10809;49.476;11.016;2023-04-04T05:27:18;99193.25;;;-0.07;48.13
21300;BME280;10809;49.476;11.016;2023-04-04T05:29:56;99192.38;;;-0.06;48.25
21300;BME280;10809;49.476;11.016;2023-04-04T05:32:29;99188.06;;;-0.06;48.11
21300;BME280;10809;49.476;11.016;2023-04-04T05:35:17;99194.97;;;-0.06;48.40
21300;BME280;10809;49.476;11.016;2023-04-04T05:38:01;99196.69;;;-0.04;48.34
21300;BME280;10809;49.476;11.016;2023-04-04T05:40:36;99195.84;;;-0.01;47.98
21300;BME280;10809;49.476;11.016;2023-04-04T05:43:20;99197.59;;;-0.00;48.09
21300;BME280;10809;49.476;11.016;2023-04-04T05:46:02;99199.31;;;-0.02;48.13
21300;BME280;10809;49.476;11.016;2023-04-04T05:48:39;99201.06;;;-0.01;47.95
21300;BME280;10809;49.476;11.016;2023-04-04T05:51:13;99194.09;;;-0.01;47.81
21300;BME280;10809;49.476;11.016;2023-04-04T05:54:03;99198.47;;;-0.01;48.07
21300;BME280;10809;49.476;11.016;2023-04-04T05:56:40;99201.06;;;0.00;48.00
21300;BME280;10809;49.476;11.016;2023-04-04T05:59:19;99194.97;;;-0.02;48.27
21300;BME280;10809;49.476;11.016;2023-04-04T06:02:01;99198.47;;;-0.04;48.30
21300;BME280;10809;49.476;11.016;2023-04-04T06:04:36;99208.88;;;-0.06;48.21
21300;BME280;10809;49.476;11.016;2023-04-04T06:07:10;99214.06;;;-0.09;48.43
21300;BME280;10809;49.476;11.016;2023-04-04T06:09:42;99213.19;;;-0.09;48.29
21300;BME280;10809;49.476;11.016;2023-04-04T06:12:13;99205.38;;;-0.08;48.26
21300;BME280;10809;49.476;11.016;2023-04-04T06:14:48;99206.25;;;-0.09;48.20
21300;BME280;10809;49.476;11.016;2023-04-04T06:17:26;99207.13;;;-0.07;48.08
21300;BME280;10809;49.476;11.016;2023-04-04T06:20:00;99213.19;;;-0.05;48.25
21300;BME280;10809;49.476;11.016;2023-04-04T06:22:38;99202.78;;;-0.03;48.22
21300;BME280;10809;49.476;11.016;2023-04-04T06:25:25;99204.50;;;0.01;48.40
21300;BME280;10809;49.476;11.016;2023-04-04T06:28:04;99203.66;;;0.03;48.30
21300;BME280;10809;49.476;11.016;2023-04-04T06:30:36;99201.06;;;0.06;48.72
21300;BME280;10809;49.476;11.016;2023-04-04T06:33:09;99205.41;;;0.10;48.49
21300;BME280;10809;49.476;11.016;2023-04-04T06:35:46;99209.75;;;0.13;48.73
21300;BME280;10809;49.476;11.016;2023-04-04T06:38:18;99207.16;;;0.16;48.47
21300;BME280;10809;49.476;11.016;2023-04-04T06:40:50;99208.00;;;0.19;48.57
21300;BME280;10809;49.476;11.016;2023-04-04T06:43:22;99211.47;;;0.23;48.33
21300;BME280;10809;49.476;11.016;2023-04-04T06:45:56;99204.53;;;0.29;48.96
21300;BME280;10809;49.476;11.016;2023-04-04T06:48:28;99207.13;;;0.50;50.18
21300;BME280;10809;49.476;11.016;2023-04-04T06:51:00;99214.84;;;0.90;51.75
21300;BME280;10809;49.476;11.016;2023-04-04T06:53:31;99207.69;;;1.43;52.66
21300;BME280;10809;49.476;11.016;2023-04-04T06:56:03;99196.84;;;2.03;52.69
21300;BME280;10809;49.476;11.016;2023-04-04T06:58:39;99188.47;;;2.66;52.78
21300;BME280;10809;49.476;11.016;2023-04-04T07:01:11;99188.66;;;3.28;52.16
21300;BME280;10809;49.476;11.016;2023-04-04T07:03:42;99187.78;;;3.90;52.13
21300;BME280;10809;49.476;11.016;2023-04-04T07:06:14;99188.63;;;4.47;51.59
21300;BME280;10809;49.476;11.016;2023-04-04T07:08:45;99186.66;;;5.05;50.99
21300;BME280;10809;49.476;11.016;2023-04-04T07:11:16;99179.38;;;5.61;50.84
21300;BME280;10809;49.476;11.016;2023-04-04T07:13:48;99178.97;;;6.16;50.62
21300;BME280;10809;49.476;11.016;2023-04-04T07:16:22;99177.59;;;6.70;49.86
21300;BME280;10809;49.476;11.016;2023-04-04T07:18:53;99178.78;;;7.23;49.02
21300;BME280;10809;49.476;11.016;2023-04-04T07:21:24;99179.19;;;7.69;47.53
21300;BME280;10809;49.476;11.016;2023-04-04T07:24:01;99177.19;;;8.05;46.61
21300;BME280;10809;49.476;11.016;2023-04-04T07:26:36;99180.78;;;8.30;45.67
21300;BME280;10809;49.476;11.016;2023-04-04T07:29:10;99181.00;;;8.50;45.94
21300;BME280;10809;49.476;11.016;2023-04-04T07:31:51;99181.03;;;8.74;46.05
21300;BME280;10809;49.476;11.016;2023-04-04T07:34:26;99175.75;;;8.99;45.76
21300;BME280;10809;49.476;11.016;2023-04-04T07:37:01;99169.47;;;9.26;45.61
21300;BME280;10809;49.476;11.016;2023-04-04T07:39:41;99171.84;;;9.56;45.45
21300;BME280;10809;49.476;11.016;2023-04-04T07:42:13;99162.84;;;9.85;45.10
21300;BME280;10809;49.476;11.016;2023-04-04T07:44:46;99173.00;;;10.17;44.75
21300;BME280;10809;49.476;11.016;2023-04-04T07:47:20;99171.84;;;10.46;44.30
21300;BME280;10809;49.476;11.016;2023-04-04T07:50:05;99168.09;;;10.71;43.66
21300;BME280;10809;49.476;11.016;2023-04-04T07:52:39;99170.22;;;10.83;42.06
21300;BME280;10809;49.476;11.016;2023-04-04T07:55:24;99163.78;;;10.89;42.40
21300;BME280;10809;49.476;11.016;2023-04-04T07:57:59;99164.53;;;10.92;41.46
21300;BME280;10809;49.476;11.016;2023-04-04T08:00:34;99166.97;;;10.97;41.59
21300;BME280;10809;49.476;11.016;2023-04-04T08:03:08;99171.94;;;11.04;41.09
21300;BME280;10809;49.476;11.016;2023-04-04T08:05:42;99165.44;;;11.11;41.05
21300;BME280;10809;49.476;11.016;2023-04-04T08:08:16;99175.78;;;11.17;40.20
21300;BME280;10809;49.476;11.016;2023-04-04T08:10:50;99162.22;;;11.25;40.92
21300;BME280;10809;49.476;11.016;2023-04-04T08:13:36;99160.81;;;11.37;40.70
21300;BME280;10809;49.476;11.016;2023-04-04T08:16:11;99161.81;;;11.53;40.62
21300;BME280;10809;49.476;11.016;2023-04-04T08:18:42;99155.03;;;11.66;39.95
21300;BME280;10809;49.476;11.016;2023-04-04T08:21:16;99153.59;;;11.77;39.62
21300;BME280;10809;49.476;11.016;2023-04-04T08:23:50;99152.94;;;11.91;39.70
21300;BME280;10809;49.476;11.016;2023-04-04T08:26:22;99156.53;;;11.90;37.75
21300;BME280;10809;49.476;11.016;2023-04-04T08:28:57;99144.22;;;11.70;37.37
21300;BME280;10809;49.476;11.016;2023-04-04T08:31:30;99158.03;;;11.40;36.39
21300;BME280;10809;49.476;11.016;2023-04-04T08:34:04;99166.03;;;10.98;36.12
21300;BME280;10809;49.476;11.016;2023-04-04T08:36:38;99167.19;;;10.51;36.08
21300;BME280;10809;49.476;11.016;2023-04-04T08:39:10;99162.25;;;10.00;35.98
21300;BME280;10809;49.476;11.016;2023-04-04T08:41:45;99166.06;;;9.47;36.35
21300;BME280;10809;49.476;11.016;2023-04-04T08:44:19;99177.50;;;9.00;36.26
21300;BME280;10809;49.476;11.016;2023-04-04T08:46:53;99165.09;;;8.51;36.58
21300;BME280;10809;49.476;11.016;2023-04-04T08:49:28;99169.94;;;8.11;37.38
21300;BME280;10809;49.476;11.016;2023-04-04T08:52:04;99175.34;;;7.79;37.81
21300;BME280;10809;49.476;11.016;2023-04-04T08:54:38;99168.38;;;7.49;37.86
21300;BME280;10809;49.476;11.016;2023-04-04T08:57:10;99170.84;;;7.24;38.25
21300;BME280;10809;49.476;11.016;2023-04-04T08:59:41;99181.03;;;7.04;38.62
21300;BME280;10809;49.476;11.016;2023-04-04T09:02:42;99176.28;;;6.86;39.50
21300;BME280;10809;49.476;11.016;2023-04-04T09:05:16;99175.69;;;6.75;39.16
21300;BME280;10809;49.476;11.016;2023-04-04T09:07:55;99173.38;;;6.63;39.53
21300;BME280;10809;49.476;11.016;2023-04-04T09:10:29;99171.88;;;6.55;38.87
21300;BME280;10809;49.476;11.016;2023-04-04T09:13:03;99169.59;;;6.41;38.83
21300;BME280;10809;49.476;11.016;2023-04-04T09:15:36;99180.50;;;6.26;38.81
21300;BME280;10809;49.476;11.016;2023-04-04T09:18:10;99169.47;;;6.11;39.03
21300;BME280;10809;49.476;11.016;2023-04-04T09:20:43;99173.34;;;5.96;38.75
21300;BME280;10809;49.476;11.016;2023-04-04T09:23:18;99178.91;;;5.82;38.78
21300;BME280;10809;49.476;11.016;2023-04-04T09:25:54;99174.78;;;5.71;39.37
21300;BME280;10809;49.476;11.016;2023-04-04T09:28:26;99176.78;;;5.60;39.56
21300;BME280;10809;49.476;11.016;2023-04-04T09:31:07;99179.50;;;5.55;40.19
21300;BME280;10809;49.476;11.016;2023-04-04T09:33:39;99186.63;;;5.50;39.74
21300;BME280;10809;49.476;11.016;2023-04-04T09:36:14;99184.03;;;5.49;40.15
21300;BME280;10809;49.476;11.016;2023-04-04T09:38:45;99181.44;;;5.47;40.10
21300;BME280;10809;49.476;11.016;2023-04-04T09:41:18;99184.88;;;5.49;40.16
21300;BME280;10809;49.476;11.016;2023-04-04T09:43:56;99180.44;;;5.53;40.19
21300;BME280;10809;49.476;11.016;2023-04-04T09:46:28;99170.75;;;5.56;40.49
21300;BME280;10809;49.476;11.016;2023-04-04T09:48:59;99178.44;;;5.64;40.24
21300;BME280;10809;49.476;11.016;2023-04-04T09:51:40;99180.91;;;5.71;40.43
21300;BME280;10809;49.476;11.016;2023-04-04T09:54:21;99180.75;;;5.79;40.31
21300;BME280;10809;49.476;11.016;2023-04-04T09:56:53;99177.91;;;5.88;40.00
21300;BME280;10809;49.476;11.016;2023-04-04T09:59:39;99168.88;;;5.98;40.39
21300;BME280;10809;49.476;11.016;2023-04-04T10:02:15;99182.66;;;6.09;40.38
21300;BME280;10809;49.476;11.016;2023-04-04T10:04:46;99175.50;;;6.16;40.32
21300;BME280;10809;49.476;11.016;2023-04-04T10:07:17;99182.22;;;6.27;40.53
21300;BME280;10809;49.476;11.016;2023-04-04T10:09:48;99173.22;;;6.37;40.61
21300;BME280;10809;49.476;11.016;2023-04-04T10:12:29;99166.72;;;6.50;40.68
21300;BME280;10809;49.476;11.016;2023-04-04T10:15:01;99162.84;;;6.63;40.01
21300;BME280;10809;49.476;11.016;2023-04-04T10:17:39;99154.63;;;6.77;39.90
21300;BME280;10809;49.476;11.016;2023-04-04T10:20:10;99162.16;;;6.90;39.38
21300;BME280;10809;49.476;11.016;2023-04-04T10:22:42;99154.06;;;6.96;38.85
21300;BME280;10809;49.476;11.016;2023-04-04T10:25:14;99155.78;;;6.97;38.53
21300;BME280;10809;49.476;11.016;2023-04-04T10:27:45;99154.06;;;6.96;38.54
21300;BME280;10809;49.476;11.016;2023-04-04T10:30:19;99158.56;;;6.93;37.87
21300;BME280;10809;49.476;11.016;2023-04-04T10:33:01;99143.97;;;6.81;38.11
21300;BME280;10809;49.476;11.016;2023-04-04T10:35:34;99147.88;;;6.67;37.89
21300;BME280;10809;49.476;11.016;2023-04-04T10:38:07;99151.72;;;6.54;38.30
21300;BME280;10809;49.476;11.016;2023-04-04T10:40:38;99149.34;;;6.45;39.15
21300;BME280;10809;49.476;11.016;2023-04-04T10:43:12;99142.28;;;6.45;39.40
21300;BME280;10809;49.476;11.016;2023-04-04T10:45:44;99147.22;;;6.57;39.75
21300;BME280;10809;49.476;11.016;2023-04-04T10:48:19;99145.91;;;6.75;40.22
21300;BME280;10809;49.476;11.016;2023-04-04T10:50:50;99147.94;;;6.96;39.87
21300;BME280;10809;49.476;11.016;2023-04-04T10:53:26;99140.22;;;7.22;40.16
21300;BME280;10809;49.476;11.016;2023-04-04T10:55:58;99135.13;;;7.45;39.88
21300;BME280;10809;49.476;11.016;2023-04-04T10:58:30;99130.88;;;7.68;39.06
21300;BME280;10809;49.476;11.016;2023-04-04T11:01:07;99134.59;;;7.91;39.48
21300;BME280;10809;49.476;11.016;2023-04-04T11:04:15;99142.69;;;8.11;39.37
21300;BME280;10809;49.476;11.016;2023-04-04T11:07:11;99130.66;;;8.30;39.20
21300;BME280;10809;49.476;11.016;2023-04-04T11:09:55;99128.38;;;8.45;39.38
21300;BME280;10809;49.476;11.016;2023-04-04T11:12:30;99132.16;;;8.63;38.77
21300;BME280;10809;49.476;11.016;2023-04-04T11:15:09;99129.00;;;8.78;38.23
21300;BME280;10809;49.476;11.016;2023-04-04T11:17:50;99123.38;;;8.87;37.96
21300;BME280;10809;49.476;11.016;2023-04-04T11:20:35;99118.09;;;8.87;37.23
21300;BME280;10809;49.476;11.016;2023-04-04T11:23:09;99128.00;;;8.80;36.10
21300;BME280;10809;49.476;11.016;2023-04-04T11:25:56;99125.00;;;8.66;37.45
21300;BME280;10809;49.476;11.016;2023-04-04T11:34:12;99123.13;;;8.44;37.21
21300;BME280;10809;49.476;11.016;2023-04-04T11:39:29;99114.81;;;8.30;36.28
21300;BME280;10809;49.476;11.016;2023-04-04T11:42:12;99118.75;;;8.17;37.16
21300;BME280;10809;49.476;11.016;2023-04-04T11:47:22;99110.31;;;8.07;36.49
21300;BME280;10809;49.476;11.016;2023-04-04T11:49:59;99096.44;;;8.01;36.15
21300;BME280;10809;49.476;11.016;2023-04-04T11:52:36;99095.81;;;7.93;36.53
21300;BME280;10809;49.476;11.016;2023-04-04T11:55:15;99097.88;;;7.85;36.63
21300;BME280;10809;49.476;11.016;2023-04-04T11:57:46;99084.78;;;7.82;36.64
21300;BME280;10809;49.476;11.016;2023-04-04T12:00:34;99092.69;;;7.82;36.99
21300;BME280;10809;49.476;11.016;2023-04-04T12:03:11;99092.50;;;7.88;36.94
21300;BME280;10809;49.476;11.016;2023-04-04T12:05:42;99095.81;;;7.93;36.44
21300;BME280;10809;49.476;11.016;2023-04-04T12:08:13;99092.16;;;7.98;36.70
21300;BME280;10809;49.476;11.016;2023-04-04T12:10:45;99085.78;;;8.04;36.69
21300;BME280;10809;49.476;11.016;2023-04-04T12:13:15;99089.91;;;8.12;36.71
21300;BME280;10809;49.476;11.016;2023-04-04T12:15:47;99082.53;;;8.22;37.26
21300;BME280;10809;49.476;11.016;2023-04-04T12:18:21;99092.84;;;8.29;36.65
21300;BME280;10809;49.476;11.016;2023-04-04T12:20:52;99098.94;;;8.31;35.61
21300;BME280;10809;49.476;11.016;2023-04-04T12:23:23;99089.59;;;8.21;35.33
21300;BME280;10809;49.476;11.016;2023-04-04T12:25:55;99089.25;;;8.06;35.06
21300;BME280;10809;49.476;11.016;2023-04-04T12:28:26;99087.28;;;7.86;35.16
21300;BME280;10809;49.476;11.016;2023-04-04T12:30:57;99087.81;;;7.68;35.53
21300;BME280;10809;49.476;11.016;2023-04-04T12:33:34;99090.06;;;7.54;36.53
21300;BME280;10809;49.476;11.016;2023-04-04T12:36:06;99089.28;;;7.50;35.83
21300;BME280;10809;49.476;11.016;2023-04-04T12:38:59;99083.38;;;7.42;36.29
21300;BME280;10809;49.476;11.016;2023-04-04T12:41:31;99078.28;;;7.36;35.97
21300;BME280;10809;49.476;11.016;2023-04-04T12:44:06;99072.19;;;7.36;36.46
21300;BME280;10809;49.476;11.016;2023-04-04T12:46:43;99074.59;;;7.43;36.78
21300;BME280;10809;49.476;11.016;2023-04-04T12:49:14;99070.69;;;7.55;37.13
21300;BME280;10809;49.476;11.016;2023-04-04T12:51:52;99070.97;;;7.73;37.58
21300;BME280;10809;49.476;11.016;2023-04-04T12:54:27;99065.94;;;7.94;37.84
21300;BME280;10809;49.476;11.016;2023-04-04T12:57:01;99061.69;;;8.14;37.64
21300;BME280;10809;49.476;11.016;2023-04-04T12:59:34;99064.53;;;8.34;37.41
21300;BME280;10809;49.476;11.016;2023-04-04T13:02:11;99052.56;;;8.49;36.88
21300;BME280;10809;49.476;11.016;2023-04-04T13:04:46;99053.16;;;8.57;35.91
21300;BME280;10809;49.476;11.016;2023-04-04T13:07:29;99048.91;;;8.53;35.91
21300;BME280;10809;49.476;11.016;2023-04-04T13:10:03;99048.44;;;8.42;34.91
21300;BME280;10809;49.476;11.016;2023-04-04T13:12:54;99049.91;;;8.24;35.46
21300;BME280;10809;49.476;11.016;2023-04-04T13:15:48;99045.06;;;8.12;36.07
21300;BME280;10809;49.476;11.016;2023-04-04T13:18:24;99048.81;;;8.05;36.22
21300;BME280;10809;49.476;11.016;2023-04-04T13:20:55;99046.25;;;8.04;35.78
21300;BME280;10809;49.476;11.016;2023-04-04T13:23:26;99047.25;;;8.00;35.15
21300;BME280;10809;49.476;11.016;2023-04-04T13:25:57;99039.63;;;7.92;35.49
21300;BME280;10809;49.476;11.016;2023-04-04T13:28:29;99040.66;;;7.87;35.57
21300;BME280;10809;49.476;11.016;2023-04-04T13:31:04;99032.06;;;7.82;36.16
21300;BME280;10809;49.476;11.016;2023-04-04T13:33:38;99035.47;;;7.83;36.08
21300;BME280;10809;49.476;11.016;2023-04-04T13:36:09;99030.00;;;7.90;36.69
21300;BME280;10809;49.476;11.016;2023-04-04T13:38:40;99020.84;;;8.01;37.01
21300;BME280;10809;49.476;11.016;2023-04-04T13:41:11;99029.06;;;8.17;36.60
21300;BME280;10809;49.476;11.016;2023-04-04T13:43:44;99028.56;;;8.32;36.83
21300;BME280;10809;49.476;11.016;2023-04-04T13:46:14;99014.81;;;8.47;36.40
21300;BME280;10809;49.476;11.016;2023-04-04T13:48:45;99009.88;;;8.61;36.16